createdAt,value
2022-11-22T00:07:34.716Z,11.00
2022-11-22T00:20:03.307Z,11.17
2022-11-22T00:32:15.007Z,13.27
2022-11-22T00:38:08.617Z,11.87
2022-11-22T00:43:31.057Z,12.00
2022-11-22T00:49:06.168Z,10.37
2022-11-22T00:54:24.041Z,11.60
2022-11-22T01:00:24.129Z,13.30
2022-11-22T01:06:31.072Z,13.30
2022-11-22T01:12:53.181Z,13.50
2022-11-22T01:25:08.224Z,12.53
2022-11-22T01:43:15.811Z,12.53
2022-11-22T01:49:21.256Z,11.30
2022-11-22T01:55:04.883Z,11.03
2022-11-22T02:01:05.777Z,11.10
2022-11-22T02:06:44.858Z,11.50
2022-11-22T02:12:08.486Z,12.00
2022-11-22T02:17:20.778Z,12.83
2022-11-22T02:22:43.062Z,11.60
2022-11-22T02:33:44.896Z,11.57
2022-11-22T02:39:17.690Z,12.53
2022-11-22T02:44:08.569Z,13.50
2022-11-22T02:49:59.544Z,12.67
2022-11-22T02:55:16.659Z,13.20
2022-11-22T03:00:55.953Z,13.13
2022-11-22T03:06:15.453Z,13.70
2022-11-22T03:11:49.008Z,11.97
2022-11-22T03:28:07.843Z,14.87
2022-11-22T03:38:48.150Z,13.70
2022-11-22T03:49:17.687Z,13.10
2022-11-22T03:54:44.723Z,13.10
2022-11-22T03:59:59.707Z,14.23
2022-11-22T04:05:39.491Z,13.87
2022-11-22T04:11:19.242Z,13.50
2022-11-22T04:17:06.727Z,13.90
2022-11-22T04:23:11.980Z,13.30
2022-11-22T04:29:09.219Z,12.40
2022-11-22T04:34:43.311Z,13.27
2022-11-22T04:46:24.528Z,12.93
2022-11-22T04:52:00.656Z,12.53
2022-11-22T04:57:26.866Z,11.80
2022-11-22T05:08:41.027Z,10.73
2022-11-22T05:14:27.729Z,11.67
2022-11-22T05:20:01.017Z,11.93
2022-11-22T05:31:51.348Z,11.20
2022-11-22T05:37:24.590Z,11.87
2022-11-22T05:42:42.451Z,11.53
2022-11-22T05:48:04.844Z,11.20
2022-11-22T05:53:19.334Z,11.23
2022-11-22T05:58:47.833Z,11.80
2022-11-22T06:03:48.779Z,10.67
2022-11-22T06:08:55.677Z,11.23
2022-11-22T06:14:46.185Z,11.37
2022-11-22T06:19:50.755Z,11.03
2022-11-22T06:25:43.308Z,11.60
2022-11-22T06:31:04.765Z,11.57
2022-11-22T06:36:52.587Z,10.60
2022-11-22T06:42:27.952Z,11.57
2022-11-22T06:47:43.313Z,10.63
2022-11-22T06:52:50.274Z,11.53
2022-11-22T06:58:08.883Z,10.80
2022-11-22T07:09:42.573Z,10.97
2022-11-22T07:39:16.226Z,12.50
2022-11-22T07:44:07.473Z,12.43
2022-11-22T07:49:10.055Z,13.00
2022-11-22T07:54:29.159Z,13.60
2022-11-22T07:59:17.494Z,12.97
2022-11-22T08:04:01.788Z,13.30
2022-11-22T08:08:49.841Z,15.27
2022-11-22T08:13:44.850Z,12.63
2022-11-22T08:18:46.847Z,13.73
2022-11-22T08:23:30.783Z,12.80
2022-11-22T08:28:18.090Z,12.40
2022-11-22T08:33:12.021Z,13.33
2022-11-22T08:38:13.133Z,12.80
2022-11-22T08:43:34.062Z,13.67
2022-11-22T09:27:00.721Z,12.33
2022-11-22T09:31:47.869Z,12.43
2022-11-22T09:36:34.345Z,12.07
2022-11-22T09:41:58.074Z,12.10
2022-11-22T09:52:16.958Z,11.03
2022-11-22T09:57:23.043Z,11.47
2022-11-22T10:02:19.366Z,11.73
2022-11-22T10:07:20.893Z,10.50
2022-11-22T10:18:41.324Z,8.87
2022-11-22T10:23:52.382Z,9.67
2022-11-22T11:11:31.538Z,8.63
2022-11-22T11:16:22.820Z,10.37
2022-11-22T11:21:07.975Z,9.50
2022-11-22T11:25:55.071Z,11.70
2022-11-22T11:30:46.205Z,10.00
2022-11-22T11:35:31.553Z,9.10
2022-11-22T11:40:35.418Z,8.80
2022-11-22T11:45:37.662Z,8.07
2022-11-22T11:50:31.375Z,7.50
2022-11-22T11:55:18.011Z,7.83
2022-11-22T12:00:05.075Z,7.83
2022-11-22T12:04:53.506Z,8.00
2022-11-22T12:09:52.987Z,8.00
2022-11-22T12:15:16.919Z,7.80
2022-11-22T12:20:06.845Z,8.03
2022-11-22T12:25:24.284Z,10.03
2022-11-22T12:30:12.705Z,9.80
2022-11-22T12:35:13.119Z,9.73
2022-11-22T12:45:41.763Z,11.00
2022-11-22T12:50:30.630Z,11.67
2022-11-22T12:55:29.004Z,11.43
2022-11-22T13:00:34.440Z,11.30
2022-11-22T13:05:25.775Z,11.03
2022-11-22T13:10:25.299Z,12.17
2022-11-22T13:15:30.436Z,11.80
2022-11-22T13:20:23.561Z,11.37
2022-11-22T13:25:37.212Z,11.43
2022-11-22T13:31:01.343Z,12.13
2022-11-22T13:35:47.690Z,11.67
2022-11-22T13:40:36.456Z,11.23
2022-11-22T13:45:23.299Z,10.00
2022-11-22T13:50:56.897Z,12.83
2022-11-22T13:56:32.253Z,11.20
2022-11-22T14:01:53.279Z,11.03
2022-11-22T14:06:57.007Z,11.00
2022-11-22T14:12:02.404Z,10.33
2022-11-22T14:17:12.377Z,9.70
2022-11-22T14:22:27.086Z,9.47
2022-11-22T14:27:30.167Z,8.77
2022-11-22T14:32:50.991Z,10.40
2022-11-22T14:38:07.203Z,10.10
2022-11-22T14:43:01.029Z,10.17
2022-11-22T14:48:01.265Z,9.60
2022-11-22T14:53:23.211Z,9.37
2022-11-22T14:58:15.294Z,8.70
2022-11-22T15:03:45.287Z,10.80
2022-11-22T15:09:10.582Z,10.23
2022-11-22T15:14:26.656Z,11.90
2022-11-22T16:01:54.878Z,16.03
2022-11-22T16:06:44.624Z,13.80
2022-11-22T16:11:35.061Z,13.83
2022-11-22T16:16:22.280Z,13.67
2022-11-22T16:21:07.514Z,14.40
2022-11-22T16:25:59.092Z,13.73
2022-11-22T16:30:46.648Z,13.17
2022-11-22T16:35:31.724Z,11.43
2022-11-22T16:40:19.669Z,12.60
2022-11-22T16:45:07.987Z,12.63
2022-11-22T16:56:38.363Z,12.70
2022-11-22T17:01:24.332Z,12.87
2022-11-22T17:11:32.464Z,13.97
2022-11-22T17:16:19.590Z,14.77
2022-11-22T17:21:07.412Z,13.77
2022-11-22T17:25:54.721Z,14.60
2022-11-22T17:31:16.584Z,15.63
2022-11-22T17:36:03.383Z,15.57
2022-11-22T17:40:51.253Z,14.17
2022-11-22T17:45:43.159Z,14.43
2022-11-22T17:50:28.308Z,15.10
2022-11-22T17:55:15.792Z,14.63
2022-11-22T18:00:02.692Z,16.37
2022-11-22T18:04:50.544Z,15.60
2022-11-22T18:09:38.959Z,14.70
2022-11-22T18:14:27.823Z,14.07
2022-11-22T18:19:17.069Z,14.73
2022-11-22T18:24:05.248Z,14.07
2022-11-22T18:29:16.183Z,14.87
2022-11-22T18:33:55.954Z,14.67
2022-11-22T18:38:43.991Z,12.83
2022-11-22T18:43:30.073Z,13.93
2022-11-22T18:48:20.393Z,13.57
2022-11-22T18:53:07.823Z,13.93
2022-11-22T18:57:57.244Z,15.37
2022-11-22T19:02:43.132Z,16.00
2022-11-22T19:07:32.530Z,17.57
2022-11-22T19:12:19.794Z,17.03
2022-11-22T19:17:07.881Z,19.60
2022-11-22T19:21:56.254Z,18.93
2022-11-22T19:26:44.585Z,14.00
2022-11-22T19:31:33.835Z,14.30
2022-11-22T19:36:26.385Z,16.87
2022-11-22T19:41:21.239Z,14.03
2022-11-22T19:46:44.086Z,16.30
2022-11-22T19:51:32.489Z,15.77
2022-11-22T19:56:21.539Z,16.50
2022-11-22T20:01:07.360Z,13.30
2022-11-22T20:06:08.866Z,14.90
2022-11-22T20:11:05.178Z,14.63
2022-11-22T20:16:48.811Z,14.07
